KCCR/CCR METAR and TAF weather

Enter ICAO airport designator
Station Type Date Time Source
KCCR METAR 2020/01/23 08:53 UTC NOAA

KCCR 230853Z AUTO 00000KT 10SM CLR 08/06 A3027 RMK AO2 SLP236 T00780061 58002


Station Type Date Time Source
KCCR Decoded METAR 2020/01/23 08:53 UTC NOAA

CONCORD BUCHANAN FIELD, CA, United States (KCCR) 38-00N 122-03W 11M
Jan 23, 2020 - 03:53 AM EST / 2020.01.23 0853 UTC
Wind: Calm:0
Visibility: 10 mile(s):0
Sky conditions: clear
Temperature: 46.0 F (7.8 C)
Dew Point: 43.0 F (6.1 C)
Relative Humidity: 88%
Pressure (altimeter): 30.27 in. Hg (1025 hPa)
Pressure tendency: 0.01 inches (0.2 hPa) lower than three hours ago
ob: KCCR 230853Z AUTO 00000KT 10SM CLR 08/06 A3027 RMK AO2 SLP236 T00780061 58002
cycle: 9

Station Type Date Time Source
KCCR TAF 2016/02/08 18:39 UTC NOAA

TAF KCCR 081738Z 0818/0918 07006KT P6SM SKC
FM082000 06010KT P6SM SKC
FM090000 06005KT P6SM SKC
FM090600 VRB03KT P6SM SKC

Example: see airport list